createdAt,value
2023-04-03T00:01:46.264Z,101140.59
2023-04-03T00:06:50.100Z,101141.76
2023-04-03T00:11:54.094Z,101148.08
2023-04-03T00:16:57.765Z,101148.37
2023-04-03T00:22:01.473Z,101152.45
2023-04-03T00:27:06.381Z,101155.26
2023-04-03T00:32:10.094Z,101154.13
2023-04-03T00:37:13.888Z,101158.63
2023-04-03T00:42:18.510Z,101163.18
2023-04-03T00:47:22.403Z,101158.71
2023-04-03T00:52:30.342Z,101158.64
2023-04-03T00:57:34.609Z,101162.74
2023-04-03T01:02:39.345Z,101165.08
2023-04-03T01:07:43.692Z,101168.05
2023-04-03T01:12:48.953Z,101174.27
2023-04-03T01:18:01.492Z,101174.85
2023-04-03T01:23:12.225Z,101181.48
2023-04-03T01:28:22.963Z,101181.98
2023-04-03T01:33:26.677Z,101178.25
2023-04-03T01:38:31.205Z,101182.62
2023-04-03T01:43:35.043Z,101180.48
2023-04-03T01:48:39.085Z,101189.14
2023-04-03T01:53:42.805Z,101195.24
2023-04-03T01:58:46.654Z,101196.49
2023-04-03T02:03:51.522Z,101207.30
2023-04-03T02:08:55.314Z,101203.60
2023-04-03T02:13:59.002Z,101205.48
2023-04-03T02:19:03.090Z,101206.51
2023-04-03T02:24:07.791Z,101204.45
2023-04-03T02:29:11.879Z,101215.23
2023-04-03T02:34:15.627Z,101218.19
2023-04-03T02:39:20.047Z,101220.70
2023-04-03T02:44:26.321Z,101223.42
2023-04-03T02:49:30.582Z,101233.23
2023-04-03T02:54:34.421Z,101230.35
2023-04-03T02:59:43.123Z,101239.44
2023-04-03T03:04:48.472Z,101237.14
2023-04-03T03:09:52.182Z,101246.61
2023-04-03T03:14:56.030Z,101234.16
2023-04-03T03:19:59.808Z,101249.35
2023-04-03T03:25:05.121Z,101242.11
2023-04-03T03:30:09.510Z,101242.20
2023-04-03T03:35:13.990Z,101245.33
2023-04-03T03:40:18.186Z,101252.95
2023-04-03T03:45:22.548Z,101254.23
2023-04-03T03:50:26.477Z,101262.00
2023-04-03T03:55:30.364Z,101262.24
2023-04-03T04:00:34.852Z,101262.96
2023-04-03T04:05:39.567Z,101266.45
2023-04-03T04:10:43.939Z,101267.66
2023-04-03T04:15:50.132Z,101266.16
2023-04-03T04:20:54.335Z,101269.48
2023-04-03T04:25:59.144Z,101277.55
2023-04-03T04:31:04.560Z,101282.08
2023-04-03T04:36:09.424Z,101289.10
2023-04-03T04:41:14.843Z,101296.84
2023-04-03T04:46:19.553Z,101309.48
2023-04-03T04:51:27.496Z,101315.88
2023-04-03T04:56:32.994Z,101318.14
2023-04-03T05:01:37.552Z,101324.27
2023-04-03T05:06:45.522Z,101318.03
2023-04-03T05:11:52.755Z,101320.91
2023-04-03T05:16:59.484Z,101325.13
2023-04-03T05:22:05.951Z,101334.88
2023-04-03T05:27:10.174Z,101337.25
2023-04-03T05:32:16.046Z,101344.18
2023-04-03T05:37:20.153Z,101344.17
2023-04-03T05:42:24.566Z,101345.00
2023-04-03T05:47:28.557Z,101355.43
2023-04-03T05:52:38.036Z,101357.13
2023-04-03T05:57:42.483Z,101354.45
2023-04-03T06:02:46.612Z,101362.34
2023-04-03T06:07:55.006Z,101359.25
2023-04-03T06:12:58.852Z,101359.44
2023-04-03T06:18:02.686Z,101365.83
2023-04-03T06:23:08.611Z,101367.75
2023-04-03T06:28:12.820Z,101379.05
2023-04-03T06:33:16.747Z,101386.48
2023-04-03T06:38:20.462Z,101380.00
2023-04-03T06:43:24.693Z,101381.02
2023-04-03T06:48:28.608Z,101389.32
2023-04-03T06:53:32.463Z,101392.11
2023-04-03T06:58:36.066Z,101399.09
2023-04-03T07:03:40.479Z,101401.41
2023-04-03T07:08:45.650Z,101411.27
2023-04-03T07:13:49.791Z,101411.52
2023-04-03T07:18:53.479Z,101416.27
2023-04-03T07:23:57.218Z,101419.80
2023-04-03T07:29:01.299Z,101435.44
2023-04-03T07:34:05.281Z,101431.11
2023-04-03T07:39:09.560Z,101430.60
2023-04-03T07:44:13.232Z,101432.21
2023-04-03T07:49:17.971Z,101438.85
2023-04-03T07:54:21.808Z,101433.18
2023-04-03T07:59:25.640Z,101426.44
2023-04-03T08:04:29.481Z,101432.25
2023-04-03T08:09:33.320Z,101439.52
2023-04-03T08:14:37.055Z,101434.36
2023-04-03T08:19:41.311Z,101432.28
2023-04-03T08:24:56.221Z,101428.61
2023-04-03T08:30:02.660Z,101435.91
2023-04-03T08:35:06.632Z,101431.09
2023-04-03T08:40:15.708Z,101427.95
2023-04-03T08:45:22.801Z,101419.48
2023-04-03T08:50:31.997Z,101436.48
2023-04-03T08:55:45.479Z,101424.66
2023-04-03T09:01:05.472Z,101427.20
2023-04-03T09:06:18.901Z,101421.83
2023-04-03T09:11:29.805Z,101423.60
2023-04-03T09:16:59.760Z,101430.73
2023-04-03T09:22:23.869Z,101424.00
2023-04-03T09:27:28.355Z,101428.05
2023-04-03T09:32:35.372Z,101432.59
2023-04-03T09:37:42.981Z,101436.81
2023-04-03T09:42:51.931Z,101440.55
2023-04-03T09:48:16.192Z,101437.41
2023-04-03T09:53:32.119Z,101434.23
2023-04-03T09:58:49.529Z,101438.55
2023-04-03T10:04:10.429Z,101438.39
2023-04-03T10:09:34.550Z,101432.50
2023-04-03T10:14:40.543Z,101430.49
2023-04-03T10:19:53.752Z,101429.10
2023-04-03T10:25:24.832Z,101429.70
2023-04-03T10:30:58.914Z,101436.45
2023-04-03T10:36:40.262Z,101430.15
2023-04-03T10:42:17.240Z,101423.30
2023-04-03T10:47:47.453Z,101423.67
2023-04-03T10:52:59.360Z,101420.72
2023-04-03T10:58:04.925Z,101412.66
2023-04-03T11:03:32.564Z,101418.23
2023-04-03T11:09:04.305Z,101418.29
2023-04-03T11:14:21.666Z,101409.86
2023-04-03T11:20:08.223Z,101418.13
2023-04-03T11:25:11.984Z,101412.81
2023-04-03T11:30:21.551Z,101408.65
2023-04-03T11:35:26.408Z,101410.25
2023-04-03T11:40:33.724Z,101411.14
2023-04-03T11:46:00.478Z,101401.87
2023-04-03T11:51:30.158Z,101394.50
2023-04-03T11:56:34.324Z,101394.56
2023-04-03T12:01:55.625Z,101390.88
2023-04-03T12:07:14.988Z,101392.83
2023-04-03T12:12:33.664Z,101399.48
2023-04-03T12:17:38.243Z,101397.13
2023-04-03T12:23:20.667Z,101382.78
2023-04-03T12:28:25.875Z,101373.49
2023-04-03T12:34:05.184Z,101393.17
2023-04-03T12:39:26.708Z,101374.02
2023-04-03T12:45:11.403Z,101376.14
2023-04-03T12:50:34.338Z,101375.30
2023-04-03T12:55:38.271Z,101385.48
2023-04-03T13:00:42.637Z,101370.23
2023-04-03T13:05:47.031Z,101377.08
2023-04-03T13:11:01.719Z,101363.76
2023-04-03T13:16:15.181Z,101369.58
2023-04-03T13:21:23.105Z,101363.17
2023-04-03T13:26:30.287Z,101362.68
2023-04-03T13:31:39.521Z,101363.80
2023-04-03T13:36:52.587Z,101355.96
2023-04-03T13:41:58.883Z,101366.90
2023-04-03T13:47:11.960Z,101383.61
2023-04-03T13:52:32.304Z,101365.55
2023-04-03T13:57:36.201Z,101365.16
2023-04-03T14:02:40.864Z,101363.22
2023-04-03T14:07:44.802Z,101358.02
2023-04-03T14:13:18.192Z,101365.11
2023-04-03T14:18:24.868Z,101358.71
2023-04-03T14:23:30.359Z,101362.56
2023-04-03T14:28:34.232Z,101353.25
2023-04-03T14:33:39.167Z,101353.96
2023-04-03T14:38:44.782Z,101351.77
2023-04-03T14:43:49.252Z,101348.81
2023-04-03T14:48:53.283Z,101349.87
2023-04-03T14:53:57.430Z,101350.59
2023-04-03T14:59:05.543Z,101353.14
2023-04-03T15:04:20.167Z,101352.93
2023-04-03T15:09:26.643Z,101344.63
2023-04-03T15:14:36.855Z,101348.02
2023-04-03T15:19:41.501Z,101362.94
2023-04-03T15:24:45.733Z,101355.08
2023-04-03T15:29:49.611Z,101354.25
2023-04-03T15:34:55.954Z,101357.42
2023-04-03T15:40:00.683Z,101366.89
2023-04-03T15:45:05.136Z,101371.52
2023-04-03T15:50:09.665Z,101375.11
2023-04-03T15:55:14.966Z,101383.66
2023-04-03T16:00:21.842Z,101378.90
2023-04-03T16:05:26.035Z,101383.00
2023-04-03T16:10:30.477Z,101376.59
2023-04-03T16:15:36.099Z,101379.91
2023-04-03T16:20:42.452Z,101384.55
2023-04-03T16:25:48.295Z,101389.63
2023-04-03T16:30:52.801Z,101396.00
2023-04-03T16:35:57.501Z,101386.90
2023-04-03T16:41:10.028Z,101394.63
2023-04-03T16:46:14.189Z,101394.91
2023-04-03T16:51:18.771Z,101395.10
2023-04-03T16:56:23.684Z,101401.27
2023-04-03T17:01:27.628Z,101398.67
2023-04-03T17:06:34.686Z,101406.08
2023-04-03T17:11:40.834Z,101402.33
2023-04-03T17:16:48.929Z,101408.73
2023-04-03T17:22:00.597Z,101407.64
2023-04-03T17:27:11.021Z,101408.14
2023-04-03T17:32:18.904Z,101415.82
2023-04-03T17:37:23.805Z,101417.77
2023-04-03T17:42:35.110Z,101420.85
2023-04-03T17:47:47.304Z,101416.43
2023-04-03T17:52:52.359Z,101418.03
2023-04-03T17:57:59.773Z,101418.63
2023-04-03T18:03:08.492Z,101422.16
2023-04-03T18:08:15.040Z,101422.79
2023-04-03T18:13:33.882Z,101419.19
2023-04-03T18:18:41.775Z,101423.71
2023-04-03T18:23:51.718Z,101425.17
2023-04-03T18:28:59.614Z,101422.77
2023-04-03T18:34:05.490Z,101427.23
2023-04-03T18:39:11.260Z,101426.65
2023-04-03T18:44:20.254Z,101426.54
2023-04-03T18:49:25.147Z,101427.41
2023-04-03T18:54:32.583Z,101429.84
2023-04-03T18:59:40.865Z,101429.45
2023-04-03T19:04:49.936Z,101423.71
2023-04-03T19:09:57.792Z,101423.59
2023-04-03T19:15:04.962Z,101422.90
2023-04-03T19:20:14.282Z,101416.99
2023-04-03T19:25:21.353Z,101420.12
2023-04-03T19:30:26.894Z,101424.09
2023-04-03T19:35:36.086Z,101423.63
2023-04-03T19:40:44.886Z,101424.91
2023-04-03T19:45:51.370Z,101426.54
2023-04-03T19:50:58.768Z,101430.14
2023-04-03T19:56:04.974Z,101433.29
2023-04-03T20:01:11.084Z,101434.41
2023-04-03T20:06:17.396Z,101435.77
2023-04-03T20:11:24.014Z,101441.35
2023-04-03T20:16:28.617Z,101436.23
2023-04-03T20:21:34.498Z,101438.78
2023-04-03T20:26:44.252Z,101443.69
2023-04-03T20:31:49.755Z,101447.60
2023-04-03T20:36:54.211Z,101449.19
2023-04-03T20:41:58.099Z,101447.77
2023-04-03T20:47:02.034Z,101449.54
2023-04-03T20:52:05.981Z,101439.87
2023-04-03T20:57:09.718Z,101444.78
2023-04-03T21:02:13.709Z,101443.41
2023-04-03T21:07:56.253Z,101442.89
2023-04-03T21:13:37.754Z,101451.61
2023-04-03T21:19:20.254Z,101452.03
2023-04-03T21:24:24.148Z,101448.45
2023-04-03T21:29:28.002Z,101447.62
2023-04-03T21:34:32.245Z,101447.79
2023-04-03T21:39:36.293Z,101453.57
2023-04-03T21:44:41.930Z,101453.63
2023-04-03T21:49:45.684Z,101449.65
2023-04-03T21:54:49.613Z,101444.71
2023-04-03T21:59:53.457Z,101447.87
2023-04-03T22:04:57.450Z,101447.93
2023-04-03T22:10:01.196Z,101448.93
2023-04-03T22:15:05.821Z,101445.73
2023-04-03T22:20:10.409Z,101450.52
2023-04-03T22:25:14.313Z,101457.86
2023-04-03T22:30:18.031Z,101461.08
2023-04-03T22:35:24.078Z,101467.61
2023-04-03T22:40:30.003Z,101470.79
2023-04-03T22:45:35.929Z,101469.98
2023-04-03T22:50:41.237Z,101467.75
2023-04-03T22:55:46.029Z,101472.06
2023-04-03T23:00:49.887Z,101473.46
2023-04-03T23:05:53.817Z,101473.15
2023-04-03T23:11:01.985Z,101470.04
2023-04-03T23:16:07.135Z,101472.73
2023-04-03T23:21:10.850Z,101467.55
2023-04-03T23:26:14.737Z,101466.34
2023-04-03T23:31:18.610Z,101465.35
2023-04-03T23:36:22.510Z,101456.69
2023-04-03T23:41:26.301Z,101456.01
2023-04-03T23:46:30.056Z,101451.79
2023-04-03T23:51:34.211Z,101449.31
2023-04-03T23:56:38.282Z,101444.54
